Time,TemperatureF,DewpointF,PressureIn,WindDirection,WindDirectionDegrees,WindSpeedMPH,WindSpeedGustMPH,Humidity,HourlyPrecipIn,Conditions,Clouds,dailyrainin,SoftwareType,DateUTC
2013-02-10 00:02:00,25.8,14.9,30.21,WNW,293,0.0,3.0,63,0.00,,,0.00,Wunderground v.1.13,2013-02-10 08:02:00,
2013-02-10 00:32:00,25.8,14.9,30.21,WNW,293,0.0,3.0,63,0.00,,,0.00,Wunderground v.1.13,2013-02-10 08:32:00,
2013-02-10 01:02:00,24.7,15.3,30.21,N/A,-737280,0.0,0.0,67,0.00,,,0.00,Wunderground v.1.13,2013-02-10 09:02:00,
2013-02-10 01:32:00,24.8,15.0,30.22,WNW,293,0.0,2.0,66,0.00,,,0.00,Wunderground v.1.13,2013-02-10 09:32:00,
2013-02-10 02:02:00,24.4,15.0,30.22,WNW,293,0.0,2.0,67,0.00,,,0.00,Wunderground v.1.13,2013-02-10 10:02:00,
2013-02-10 02:32:00,24.0,14.6,30.21,WNW,293,0.0,2.0,67,0.00,,,0.00,Wunderground v.1.13,2013-02-10 10:32:00,
2013-02-10 03:02:00,24.0,14.3,30.21,WNW,293,0.0,2.0,66,0.00,,,0.00,Wunderground v.1.13,2013-02-10 11:02:00,
2013-02-10 03:32:00,22.8,14.1,30.22,N/A,-737280,0.0,0.0,69,0.00,,,0.00,Wunderground v.1.13,2013-02-10 11:32:00,
2013-02-10 04:02:00,22.4,14.4,30.22,N/A,-737280,0.0,0.0,71,0.00,,,0.00,Wunderground v.1.13,2013-02-10 12:02:00,
2013-02-10 04:32:00,23.5,15.1,30.22,WNW,293,0.0,2.0,70,0.00,,,0.00,Wunderground v.1.13,2013-02-10 12:32:00,
2013-02-10 05:02:00,22.4,14.7,30.22,WNW,293,0.0,1.0,72,0.00,,,0.00,Wunderground v.1.13,2013-02-10 13:02:00,
2013-02-10 05:32:00,22.1,14.4,30.25,WNW,293,0.0,2.0,72,0.00,,,0.00,Wunderground v.1.13,2013-02-10 13:32:00,
2013-02-10 06:02:00,23.5,15.5,30.23,WNW,293,1.0,3.0,71,0.00,,,0.00,Wunderground v.1.13,2013-02-10 14:02:00,
2013-02-10 06:32:00,22.5,14.8,30.23,WNW,293,0.0,3.0,72,0.00,,,0.00,Wunderground v.1.13,2013-02-10 14:32:00,
2013-02-10 07:02:00,21.8,14.5,30.24,WNW,293,0.0,1.0,73,0.00,,,0.00,Wunderground v.1.13,2013-02-10 15:02:00,
2013-02-10 07:32:00,24.4,16.3,30.22,WNW,293,1.0,5.0,71,0.00,,,0.00,Wunderground v.1.13,2013-02-10 15:32:00,
2013-02-10 08:02:00,22.0,15.0,30.25,WNW,293,1.0,5.0,74,0.00,,,0.00,Wunderground v.1.13,2013-02-10 16:02:00,
2013-02-10 08:32:00,26.4,17.6,30.27,WNW,293,1.0,4.0,69,0.00,,,0.00,Wunderground v.1.13,2013-02-10 16:32:00,
2013-02-10 09:02:00,28.1,18.9,30.26,NW,306,2.0,2.0,68,0.00,,,0.00,Wunderground v.1.13,2013-02-10 17:02:00,
2013-02-10 09:32:00,28.1,18.5,30.27,NW,309,0.0,0.0,67,0.00,,,0.00,Wunderground v.1.13,2013-02-10 17:32:00,
2013-02-10 10:02:00,31.7,20.2,30.25,NW,326,5.0,5.0,62,0.00,,,0.00,Wunderground v.1.13,2013-02-10 18:02:00,
2013-02-10 10:32:00,32.0,19.7,30.25,NE,48,4.0,4.0,60,0.00,,,0.00,Wunderground v.1.13,2013-02-10 18:32:00,
2013-02-10 11:02:00,33.3,19.7,30.26,NE,52,3.0,4.0,57,0.00,,,0.00,Wunderground v.1.13,2013-02-10 19:02:00,
2013-02-10 11:32:00,34.0,19.5,30.24,ENE,63,1.0,1.0,55,0.00,,,0.00,Wunderground v.1.13,2013-02-10 19:32:00,
2013-02-10 12:02:00,35.9,19.0,30.22,NE,45,5.0,7.0,50,0.00,,,0.00,Wunderground v.1.13,2013-02-10 20:02:00,
2013-02-10 12:32:00,36.6,18.2,30.20,North,9,6.0,11.0,47,0.00,,,0.00,Wunderground v.1.13,2013-02-10 20:32:00,
2013-02-10 13:02:00,37.2,17.3,30.20,North,9,6.0,9.0,44,0.00,,,0.00,Wunderground v.1.13,2013-02-10 21:02:00,
2013-02-10 13:32:00,37.5,16.5,30.19,NE,42,3.0,3.0,42,0.00,,,0.00,Wunderground v.1.13,2013-02-10 21:32:00,
2013-02-10 14:02:00,37.7,17.2,30.19,NNE,22,5.0,5.0,43,0.00,,,0.00,Wunderground v.1.13,2013-02-10 22:02:00,
2013-02-10 14:32:00,37.9,16.3,30.19,NNW,338,5.0,6.0,41,0.00,,,0.00,Wunderground v.1.13,2013-02-10 22:32:00,
2013-02-10 15:02:00,39.4,16.5,30.19,North,9,4.0,9.0,39,0.00,,,0.00,Wunderground v.1.13,2013-02-10 23:02:00,
2013-02-10 15:32:00,38.6,15.7,30.20,NNE,18,5.0,5.0,39,0.00,,,0.00,Wunderground v.1.13,2013-02-10 23:32:00,
2013-02-10 16:02:00,38.0,15.2,30.20,NNE,24,5.0,5.0,39,0.00,,,0.00,Wunderground v.1.13,2013-02-11 00:02:00,
2013-02-10 16:32:00,37.1,15.0,30.21,North,9,4.0,4.0,40,0.00,,,0.00,Wunderground v.1.13,2013-02-11 00:32:00,
2013-02-10 17:02:00,35.6,14.2,30.22,North,5,6.0,6.0,41,0.00,,,0.00,Wunderground v.1.13,2013-02-11 01:02:00,
2013-02-10 17:32:00,34.4,14.2,30.22,North,360,4.0,4.0,43,0.00,,,0.00,Wunderground v.1.13,2013-02-11 01:32:00,
2013-02-10 18:02:00,32.5,13.5,30.24,North,360,1.0,1.0,45,0.00,,,0.00,Wunderground v.1.13,2013-02-11 02:02:00,
2013-02-10 18:32:00,31.2,13.8,30.27,North,360,0.0,2.0,48,0.00,,,0.00,Wunderground v.1.13,2013-02-11 02:32:00,
2013-02-10 19:02:00,31.4,14.4,30.27,North,360,1.0,3.0,49,0.00,,,0.00,Wunderground v.1.13,2013-02-11 03:02:00,
2013-02-10 19:32:00,31.7,14.2,30.26,NNW,338,1.0,3.0,48,0.00,,,0.00,Wunderground v.1.13,2013-02-11 03:32:00,
2013-02-10 20:02:00,29.6,14.1,30.28,NNW,338,0.0,0.0,52,0.00,,,0.00,Wunderground v.1.13,2013-02-11 04:02:00,
2013-02-10 20:32:00,29.9,15.3,30.25,NNW,338,1.0,1.0,54,0.00,,,0.00,Wunderground v.1.13,2013-02-11 04:32:00,
2013-02-10 21:02:00,30.2,15.1,30.27,WNW,297,2.0,2.0,53,0.00,,,0.00,Wunderground v.1.13,2013-02-11 05:02:00,
2013-02-10 21:32:00,28.5,13.5,30.26,WNW,294,2.0,3.0,53,0.00,,,0.00,Wunderground v.1.13,2013-02-11 05:32:00,
2013-02-10 22:02:00,28.2,13.2,30.26,WSW,241,1.0,3.0,53,0.00,,,0.00,Wunderground v.1.13,2013-02-11 06:02:00,
2013-02-10 22:32:00,27.9,13.0,30.26,WSW,242,3.0,3.0,53,0.00,,,0.00,Wunderground v.1.13,2013-02-11 06:32:00,
2013-02-10 23:02:00,26.9,12.9,30.27,WSW,240,3.0,3.0,55,0.00,,,0.00,Wunderground v.1.13,2013-02-11 07:02:00,
2013-02-10 23:32:00,26.4,12.8,30.25,WSW,248,2.0,6.0,56,0.00,,,0.00,Wunderground v.1.13,2013-02-11 07:32:00,